»·PEaware :: N206GH KOSH-KOSH

N206GH :: KOSH-KOSH

FLIGHT INFORMATION

Flight Status: Arrived
Operator: Privately registered:
United States
More flights under this callsign
Pilot: Gabor H. (24209)
Aircraft: CESSNA 206 STATIONAIR
(C206)
More flights by this aircraft type
Origin: KOSH Wittman Regl
United States
Destination: KOSH Wittman Regl
United States
More flights between these airports :: More routes between these airports
Route: RIPON FISK
File this flight plan on PilotEdge
Remarks:
Altitude:
(Current/Filed)
4,500ft
Speed:
(Current/Filed)
165kts
Departed: 17-Jul-21 01:55 PM
Arrived: 17-Jul-21 02:37 PM
Distance/Time
Traveled:
0nm/0:42
Distance/Time
To Go:
Arrived

Flight Plot

Page will automatically refresh every two minutes.

Flight plan parsing failed; only flown route is shown


Map Options




Map Legend


Flown Route
Filed Route
Departure Airport
Arrival Airport
Navaid (VOR, NDB)
Fix

Horizontal Profiles

Position Reports

Time Latitude Longitude Heading Altitude Ground
Speed
17-Jul-21 13:47 43.990453 -88.568124 308 812ft 0kts
17-Jul-21 13:48 43.990453 -88.568124 308 812ft 0kts
17-Jul-21 13:49 43.990453 -88.568124 308 812ft 0kts
17-Jul-21 13:50 43.990951 -88.565809 88 812ft 20kts
17-Jul-21 13:51 43.990678 -88.558853 128 812ft 26kts
17-Jul-21 13:52 43.987154 -88.554339 183 812ft 3kts
17-Jul-21 13:53 43.984938 -88.554302 179 812ft 35kts
17-Jul-21 13:54 43.961728 -88.554689 169 1308ft 116kts
17-Jul-21 13:55 43.929568 -88.527195 145 1301ft 147kts
17-Jul-21 13:56 43.894691 -88.496467 168 1486ft 140kts
17-Jul-21 13:57 43.874324 -88.531165 246 2452ft 123kts
17-Jul-21 13:58 43.861104 -88.573151 241 3444ft 116kts
17-Jul-21 13:59 43.846055 -88.612200 241 4433ft 114kts
17-Jul-21 14:00 43.827748 -88.659706 241 4501ft 155kts
17-Jul-21 14:01 43.807541 -88.712294 241 4499ft 154kts
17-Jul-21 14:02 43.790406 -88.766387 246 4499ft 153kts
17-Jul-21 14:03 43.773900 -88.820381 246 4499ft 152kts
17-Jul-21 14:04 43.757364 -88.874575 246 4500ft 152kts
17-Jul-21 14:05 43.740918 -88.928581 247 4500ft 152kts
17-Jul-21 14:06 43.724440 -88.982796 247 4500ft 152kts
17-Jul-21 14:07 43.708038 -89.036871 247 4500ft 152kts
17-Jul-21 14:08 43.691673 -89.090925 247 4500ft 152kts
17-Jul-21 14:09 43.675951 -89.145405 261 4497ft 152kts
17-Jul-21 14:10 43.676472 -89.203830 285 4494ft 153kts
17-Jul-21 14:11 43.696910 -89.244210 306 3422ft 123kts
17-Jul-21 14:12 43.724161 -89.236869 53 1927ft 115kts
17-Jul-21 14:13 43.737935 -89.195603 68 1803ft 132kts
17-Jul-21 14:14 43.745353 -89.144349 84 1798ft 132kts
17-Jul-21 14:15 43.753008 -89.101881 68 1794ft 98kts
17-Jul-21 14:16 43.762662 -89.068610 67 1799ft 92kts
17-Jul-21 14:17 43.773035 -89.036184 63 1800ft 92kts
17-Jul-21 14:18 43.784065 -89.005908 62 1801ft 80kts
17-Jul-21 14:19 43.793349 -88.980618 62 1805ft 89kts
17-Jul-21 14:20 43.804818 -88.949103 62 1799ft 91kts
17-Jul-21 14:21 43.816332 -88.917528 62 1799ft 92kts
17-Jul-21 14:22 43.827749 -88.886200 62 1802ft 93kts
17-Jul-21 14:23 43.839398 -88.854189 62 1800ft 92kts
17-Jul-21 14:24 43.853693 -88.824802 50 1800ft 92kts
17-Jul-21 14:25 43.869520 -88.796684 52 1800ft 92kts
17-Jul-21 14:26 43.885203 -88.768357 50 1799ft 92kts
17-Jul-21 14:27 43.903152 -88.742846 44 1800ft 92kts
17-Jul-21 14:28 43.922411 -88.719049 40 1797ft 92kts
17-Jul-21 14:29 43.941963 -88.695817 40 1800ft 92kts
17-Jul-21 14:30 43.951176 -88.665177 92 1691ft 94kts
17-Jul-21 14:31 43.952513 -88.630093 92 1797ft 93kts
17-Jul-21 14:32 43.950277 -88.594512 91 1799ft 92kts
17-Jul-21 14:33 43.950181 -88.558874 87 1799ft 92kts
17-Jul-21 14:34 43.965697 -88.541331 358 1431ft 74kts
17-Jul-21 14:35 43.981254 -88.549670 271 974ft 71kts
17-Jul-21 14:36 43.973808 -88.557842 296 812ft 11kts
17-Jul-21 14:37 43.977872 -88.558033 0 812ft 25kts

Navigation Log

Ident Type
Flight plan parsing failed, navigation log unavailable